AMA weather

Rick Husband Amarillo International Airport
Amarillo, Texas, United States

Public forecast

Using degrees Fahrenheit for public forecast. Weather courtesy of forecast.io.

METAR (pilot weather report)

Retrieved 2019/07/21 21:53 UTC (59 minutes ago):

KAMA 212153Z 03009KT 10SM CLR 37/14 A3000 RMK AO2 SLP094 T03670139

TAF (pilot weather forecast)

Retrieved 2019/07/21 18:22 UTC (4 hours ago):

TAF KAMA 211720Z 2118/2218 12007KT P6SM FEW200 FM220000 14010KT P6SM VCTS SCT060CB FM220300 10008KT P6SM SCT200 TEMPO 2209/2213 4SM TSRA OVC025CB FM221300 01016KT P6SM BKN020 PROB30 2213/2218 4SM TSRA OVC015CB